TAP1483 LPPT-GOBD
Flight info
| Callsign | TAP1483 |
|---|---|
| Flight time | N/A |
| Altitude | 33000 |
| Route | BEVOP DCT BAROK UN873 SAMAR N873 GDV/N0461F340 M660 DKH L660 MAURI DCT PE UB600 LIMAX LIMAX1G |
| Aircraft | A21N/M-SADE3FGHIJ1J3J7M3RWXYZ/LB1D1 |
Departure
| Time | 2026-05-04 22:49 |
|---|---|
| Airport | Lisbon Humberto Delgado Airport (LPPT) |
Arrival
| Time | N/A |
|---|---|
| Airport | Blaise Diagne International Airport (GOBD) |
| Time | Latitude | Longitude | Altitude | Speed | Heading |
|---|---|---|---|---|---|
| 2026-05-04 22:36 | 38.77610 | -9.13195 | 343 ft | 0 kts | 78° |
| 2026-05-04 22:38 | 38.77608 | -9.13206 | 343 ft | 4 kts | 80° |
| 2026-05-04 22:38 | 38.77603 | -9.13239 | 343 ft | 4 kts | 62° |
| 2026-05-04 22:39 | 38.77591 | -9.13260 | 354 ft | 4 kts | 53° |
| 2026-05-04 22:39 | 38.77582 | -9.13288 | 347 ft | 4 kts | 96° |
| 2026-05-04 22:39 | 38.77589 | -9.13313 | 354 ft | 4 kts | 153° |
| 2026-05-04 22:39 | 38.77613 | -9.13319 | 356 ft | 4 kts | 179° |
| 2026-05-04 22:40 | 38.77604 | -9.13320 | 350 ft | 4 kts | 180° |
| 2026-05-04 22:40 | 38.77577 | -9.13318 | 343 ft | 4 kts | 174° |
| 2026-05-04 22:40 | 38.77554 | -9.13313 | 343 ft | 1 kts | 168° |
| 2026-05-04 22:43 | 38.77548 | -9.13311 | 343 ft | 2 kts | 168° |
| 2026-05-04 22:43 | 38.77522 | -9.13304 | 353 ft | 5 kts | 168° |
| 2026-05-04 22:43 | 38.77477 | -9.13292 | 348 ft | 8 kts | 168° |
| 2026-05-04 22:44 | 38.77415 | -9.13275 | 349 ft | 10 kts | 168° |
| 2026-05-04 22:44 | 38.77346 | -9.13271 | 344 ft | 11 kts | 208° |
| 2026-05-04 22:44 | 38.77319 | -9.13367 | 349 ft | 13 kts | 257° |
| 2026-05-04 22:44 | 38.77298 | -9.13486 | 351 ft | 14 kts | 258° |
| 2026-05-04 22:45 | 38.77277 | -9.13616 | 359 ft | 16 kts | 258° |
| 2026-05-04 22:45 | 38.77187 | -9.13870 | 363 ft | 18 kts | 200° |
| 2026-05-04 22:45 | 38.77072 | -9.13930 | 357 ft | 18 kts | 202° |
| 2026-05-04 22:46 | 38.76955 | -9.13994 | 358 ft | 18 kts | 202° |
| 2026-05-04 22:46 | 38.76835 | -9.14058 | 353 ft | 19 kts | 202° |
| 2026-05-04 22:46 | 38.76713 | -9.14124 | 349 ft | 19 kts | 202° |
| 2026-05-04 22:46 | 38.76610 | -9.14180 | 348 ft | 7 kts | 212° |
| 2026-05-04 22:47 | 38.76597 | -9.14243 | 347 ft | 8 kts | 281° |
| 2026-05-04 22:47 | 38.76619 | -9.14313 | 347 ft | 9 kts | 294° |
| 2026-05-04 22:47 | 38.76654 | -9.14376 | 348 ft | 9 kts | 2° |
| 2026-05-04 22:47 | 38.76689 | -9.14363 | 350 ft | 4 kts | 23° |
| 2026-05-04 22:48 | 38.76752 | -9.14328 | 352 ft | 30 kts | 23° |
| 2026-05-04 22:48 | 38.77160 | -9.14111 | 360 ft | 95 kts | 21° |
| 2026-05-04 22:48 | 38.77945 | -9.13693 | 371 ft | 148 kts | 21° |
| 2026-05-04 22:48 | 38.79025 | -9.13118 | 463 ft | 179 kts | 21° |
| 2026-05-04 22:49 | 38.80161 | -9.12502 | 1055 ft | 177 kts | 25° |
| 2026-05-04 22:49 | 38.81199 | -9.11672 | 1775 ft | 173 kts | 28° |
| 2026-05-04 22:49 | 38.82235 | -9.10837 | 2320 ft | 183 kts | 26° |
| 2026-05-04 22:49 | 38.83387 | -9.09983 | 2764 ft | 200 kts | 25° |
| 2026-05-04 22:50 | 38.84651 | -9.09070 | 3199 ft | 218 kts | 26° |
| 2026-05-04 22:50 | 38.86041 | -9.08059 | 3536 ft | 242 kts | 29° |
| 2026-05-04 22:50 | 38.87264 | -9.06464 | 4089 ft | 262 kts | 57° |
| 2026-05-04 22:50 | 38.87754 | -9.04182 | 4852 ft | 273 kts | 88° |
| 2026-05-04 22:51 | 38.87296 | -9.01817 | 5603 ft | 279 kts | 119° |
| 2026-05-04 22:51 | 38.85959 | -9.00035 | 6361 ft | 281 kts | 152° |
| 2026-05-04 22:51 | 38.84106 | -8.99357 | 7077 ft | 279 kts | 182° |
| 2026-05-04 22:51 | 38.82207 | -8.99811 | 7780 ft | 279 kts | 200° |
| 2026-05-04 22:52 | 38.80354 | -9.00609 | 8521 ft | 283 kts | 201° |
| 2026-05-04 22:52 | 38.78469 | -9.01413 | 9254 ft | 287 kts | 201° |
| 2026-05-04 22:52 | 38.76546 | -9.02187 | 10002 ft | 292 kts | 200° |
| 2026-05-04 22:52 | 38.74573 | -9.02954 | 10528 ft | 304 kts | 200° |
| 2026-05-04 22:53 | 38.72492 | -9.03747 | 10845 ft | 323 kts | 200° |
| 2026-05-04 22:53 | 38.70267 | -9.04583 | 11135 ft | 342 kts | 199° |
| 2026-05-04 22:53 | 38.67923 | -9.05459 | 11406 ft | 360 kts | 199° |
| 2026-05-04 22:53 | 38.65456 | -9.06377 | 11683 ft | 377 kts | 199° |
| 2026-05-04 22:54 | 38.62878 | -9.07332 | 11936 ft | 392 kts | 199° |
| 2026-05-04 22:54 | 38.60234 | -9.08308 | 12415 ft | 398 kts | 199° |
| 2026-05-04 22:54 | 38.57605 | -9.09276 | 12970 ft | 400 kts | 200° |
| 2026-05-04 22:54 | 38.54923 | -9.10267 | 13536 ft | 402 kts | 200° |
| 2026-05-04 22:55 | 38.52228 | -9.11263 | 14063 ft | 404 kts | 200° |
| 2026-05-04 22:55 | 38.49487 | -9.12275 | 14544 ft | 406 kts | 200° |
| 2026-05-04 22:55 | 38.46764 | -9.13281 | 14996 ft | 409 kts | 200° |
| 2026-05-04 22:55 | 38.44069 | -9.14274 | 15435 ft | 411 kts | 200° |
| 2026-05-04 22:56 | 38.41303 | -9.15294 | 15877 ft | 414 kts | 201° |
| 2026-05-04 22:56 | 38.38527 | -9.16315 | 16299 ft | 416 kts | 201° |
| 2026-05-04 22:56 | 38.35734 | -9.17342 | 16718 ft | 418 kts | 201° |
| 2026-05-04 22:56 | 38.32945 | -9.18368 | 17110 ft | 421 kts | 201° |
| 2026-05-04 22:57 | 38.30113 | -9.19407 | 17528 ft | 423 kts | 201° |
| 2026-05-04 22:57 | 38.27272 | -9.20449 | 17903 ft | 426 kts | 201° |
| 2026-05-04 22:57 | 38.24420 | -9.21493 | 18302 ft | 428 kts | 201° |
| 2026-05-04 22:57 | 38.21549 | -9.22544 | 18673 ft | 431 kts | 201° |
| 2026-05-04 22:58 | 38.18663 | -9.23600 | 19030 ft | 432 kts | 201° |
| 2026-05-04 22:58 | 38.15766 | -9.24659 | 19401 ft | 434 kts | 201° |
| 2026-05-04 22:58 | 38.12864 | -9.25721 | 19764 ft | 435 kts | 201° |
| 2026-05-04 22:58 | 38.09943 | -9.26788 | 20125 ft | 437 kts | 201° |
| 2026-05-04 22:59 | 38.07007 | -9.27859 | 20506 ft | 439 kts | 201° |
| 2026-05-04 22:59 | 38.04065 | -9.28932 | 20881 ft | 441 kts | 202° |
| 2026-05-04 22:59 | 38.01119 | -9.30006 | 21268 ft | 442 kts | 202° |
| 2026-05-04 22:59 | 37.98159 | -9.31082 | 21656 ft | 444 kts | 202° |
| 2026-05-04 23:00 | 37.95176 | -9.32166 | 22061 ft | 446 kts | 202° |
| 2026-05-04 23:00 | 37.92185 | -9.33252 | 22455 ft | 448 kts | 202° |
| 2026-05-04 23:00 | 37.89182 | -9.34339 | 22859 ft | 451 kts | 202° |
| 2026-05-04 23:00 | 37.86156 | -9.35434 | 23272 ft | 452 kts | 202° |
| 2026-05-04 23:01 | 37.83126 | -9.36535 | 23684 ft | 454 kts | 202° |
| 2026-05-04 23:01 | 37.80077 | -9.37644 | 23999 ft | 456 kts | 202° |
| 2026-05-04 23:01 | 37.77020 | -9.38750 | 24329 ft | 458 kts | 202° |
| 2026-05-04 23:01 | 37.73948 | -9.39859 | 24662 ft | 459 kts | 202° |
| 2026-05-04 23:02 | 37.70885 | -9.40964 | 25092 ft | 457 kts | 202° |
| 2026-05-04 23:02 | 37.67836 | -9.42062 | 25551 ft | 455 kts | 202° |
| 2026-05-04 23:02 | 37.64813 | -9.43151 | 26000 ft | 452 kts | 202° |
| 2026-05-04 23:02 | 37.61788 | -9.44238 | 26442 ft | 450 kts | 202° |
| 2026-05-04 23:03 | 37.58791 | -9.45316 | 26881 ft | 448 kts | 202° |
| 2026-05-04 23:03 | 37.55792 | -9.46395 | 27258 ft | 447 kts | 202° |
| 2026-05-04 23:03 | 37.52783 | -9.47477 | 27597 ft | 448 kts | 202° |
| 2026-05-04 23:03 | 37.49795 | -9.48550 | 27990 ft | 447 kts | 202° |
| 2026-05-04 23:04 | 37.46810 | -9.49620 | 28390 ft | 446 kts | 202° |
| 2026-05-04 23:04 | 37.43829 | -9.50688 | 28803 ft | 444 kts | 203° |
| 2026-05-04 23:04 | 37.40863 | -9.51748 | 29210 ft | 442 kts | 203° |
| 2026-05-04 23:04 | 37.37904 | -9.52809 | 29615 ft | 441 kts | 203° |
| 2026-05-04 23:05 | 37.34962 | -9.53862 | 30010 ft | 439 kts | 203° |
| 2026-05-04 23:05 | 37.32023 | -9.54912 | 30352 ft | 438 kts | 203° |
| 2026-05-04 23:05 | 37.29136 | -9.55941 | 30669 ft | 437 kts | 203° |
| 2026-05-04 23:05 | 37.26215 | -9.56980 | 31002 ft | 435 kts | 203° |
| 2026-05-04 23:06 | 37.23304 | -9.58014 | 31322 ft | 434 kts | 204° |
| 2026-05-04 23:06 | 37.20405 | -9.59043 | 31651 ft | 432 kts | 204° |
| 2026-05-04 23:06 | 37.17516 | -9.60071 | 31968 ft | 431 kts | 204° |
| 2026-05-04 23:06 | 37.14639 | -9.61095 | 32281 ft | 429 kts | 204° |
| 2026-05-04 23:07 | 37.11768 | -9.62115 | 32590 ft | 428 kts | 204° |
| 2026-05-04 23:07 | 37.08904 | -9.63131 | 32887 ft | 426 kts | 204° |
| 2026-05-04 23:07 | 37.06055 | -9.64140 | 33107 ft | 426 kts | 204° |
| 2026-05-04 23:07 | 37.03200 | -9.65155 | 33216 ft | 427 kts | 204° |
| 2026-05-04 23:08 | 36.97506 | -9.67176 | 33198 ft | 425 kts | 204° |
| 2026-05-04 23:08 | 36.91800 | -9.69191 | 33182 ft | 426 kts | 204° |
| 2026-05-04 23:09 | 36.86086 | -9.71210 | 33185 ft | 426 kts | 204° |
| 2026-05-04 23:09 | 36.80381 | -9.73219 | 33175 ft | 427 kts | 203° |
| 2026-05-04 23:10 | 36.74646 | -9.75234 | 33183 ft | 428 kts | 203° |
| 2026-05-04 23:10 | 36.68918 | -9.77245 | 33185 ft | 428 kts | 203° |
| 2026-05-04 23:11 | 36.63192 | -9.79252 | 33180 ft | 428 kts | 203° |
| 2026-05-04 23:11 | 36.57899 | -9.82206 | 33157 ft | 412 kts | 220° |
| 2026-05-04 23:12 | 36.53242 | -9.86350 | 33179 ft | 411 kts | 221° |
| 2026-05-04 23:12 | 36.48584 | -9.90487 | 33189 ft | 412 kts | 221° |
| 2026-05-04 23:13 | 36.43916 | -9.94586 | 33182 ft | 412 kts | 221° |
| 2026-05-04 23:13 | 36.39222 | -9.98692 | 33189 ft | 412 kts | 221° |
| 2026-05-04 23:14 | 36.34534 | -10.02790 | 33187 ft | 412 kts | 221° |
| 2026-05-04 23:14 | 36.29843 | -10.06882 | 33168 ft | 414 kts | 220° |
| 2026-05-04 23:15 | 36.25137 | -10.10982 | 33183 ft | 413 kts | 220° |
| 2026-05-04 23:15 | 36.20426 | -10.15080 | 33188 ft | 413 kts | 220° |
| 2026-05-04 23:16 | 36.15719 | -10.19168 | 33189 ft | 414 kts | 220° |
| 2026-05-04 23:16 | 36.11037 | -10.23231 | 33189 ft | 414 kts | 220° |
| 2026-05-04 23:17 | 36.06283 | -10.27348 | 33190 ft | 415 kts | 220° |
| 2026-05-04 23:17 | 36.01550 | -10.31437 | 33181 ft | 419 kts | 219° |
| 2026-05-04 23:18 | 35.96776 | -10.35552 | 33188 ft | 419 kts | 219° |
| 2026-05-04 23:18 | 35.92000 | -10.39664 | 33188 ft | 419 kts | 219° |
| 2026-05-04 23:19 | 35.87224 | -10.43769 | 33191 ft | 419 kts | 219° |
| 2026-05-04 23:19 | 35.82442 | -10.47879 | 33188 ft | 419 kts | 219° |
| 2026-05-04 23:20 | 35.77664 | -10.51980 | 33176 ft | 420 kts | 219° |
| 2026-05-04 23:20 | 35.72856 | -10.56096 | 33186 ft | 421 kts | 219° |
| 2026-05-04 23:21 | 35.68041 | -10.60211 | 33187 ft | 422 kts | 219° |
| 2026-05-04 23:21 | 35.63216 | -10.64330 | 33188 ft | 422 kts | 219° |
| 2026-05-04 23:22 | 35.59213 | -10.67740 | 33189 ft | 421 kts | 219° |
| 2026-05-04 23:22 | 35.54398 | -10.71838 | 33186 ft | 421 kts | 219° |
| 2026-05-04 23:23 | 35.49578 | -10.75937 | 33189 ft | 421 kts | 219° |
| 2026-05-04 23:23 | 35.44757 | -10.80031 | 33186 ft | 421 kts | 219° |
| 2026-05-04 23:24 | 35.39939 | -10.84116 | 33186 ft | 421 kts | 219° |
| 2026-05-04 23:24 | 35.35116 | -10.88194 | 33186 ft | 421 kts | 219° |
| 2026-05-04 23:25 | 35.30293 | -10.92272 | 33190 ft | 422 kts | 219° |
| 2026-05-04 23:25 | 35.25456 | -10.96358 | 33166 ft | 423 kts | 219° |
| 2026-05-04 23:26 | 35.20611 | -11.00443 | 33180 ft | 423 kts | 218° |
| 2026-05-04 23:26 | 35.15759 | -11.04521 | 33185 ft | 423 kts | 218° |
| 2026-05-04 23:27 | 35.10898 | -11.08603 | 33183 ft | 424 kts | 218° |
| 2026-05-04 23:27 | 35.06051 | -11.12673 | 33183 ft | 424 kts | 218° |
| 2026-05-04 23:28 | 35.01182 | -11.16749 | 33183 ft | 424 kts | 218° |
| 2026-05-04 23:28 | 34.96324 | -11.20812 | 33166 ft | 424 kts | 218° |
| 2026-05-04 23:29 | 34.91449 | -11.24885 | 33170 ft | 425 kts | 218° |
| 2026-05-04 23:29 | 34.86578 | -11.28945 | 33190 ft | 425 kts | 218° |
| 2026-05-04 23:30 | 34.81696 | -11.33011 | 33181 ft | 426 kts | 218° |
| 2026-05-04 23:30 | 34.76841 | -11.37050 | 33174 ft | 426 kts | 218° |
| 2026-05-04 23:31 | 34.71947 | -11.41113 | 33186 ft | 426 kts | 218° |
| 2026-05-04 23:31 | 34.67009 | -11.45206 | 33171 ft | 431 kts | 218° |
| 2026-05-04 23:32 | 34.62046 | -11.49316 | 33186 ft | 431 kts | 218° |
| 2026-05-04 23:32 | 34.57088 | -11.53418 | 33179 ft | 432 kts | 218° |
| 2026-05-04 23:33 | 34.52126 | -11.57512 | 33173 ft | 432 kts | 218° |
| 2026-05-04 23:33 | 34.47155 | -11.61609 | 33181 ft | 432 kts | 218° |
| 2026-05-04 23:34 | 34.42188 | -11.65699 | 33171 ft | 433 kts | 218° |
| 2026-05-04 23:34 | 34.37193 | -11.69806 | 33177 ft | 434 kts | 218° |
| 2026-05-04 23:35 | 34.32191 | -11.73908 | 33176 ft | 434 kts | 217° |
| 2026-05-04 23:35 | 34.27192 | -11.78000 | 33176 ft | 434 kts | 218° |
| 2026-05-04 23:36 | 34.22191 | -11.82096 | 33170 ft | 434 kts | 218° |
| 2026-05-04 23:36 | 34.17182 | -11.86185 | 33171 ft | 434 kts | 217° |
| 2026-05-04 23:37 | 34.12159 | -11.90287 | 33166 ft | 438 kts | 217° |
| 2026-05-04 23:37 | 34.07109 | -11.94403 | 33172 ft | 438 kts | 217° |
| 2026-05-04 23:38 | 34.02052 | -11.98510 | 33167 ft | 438 kts | 217° |
| 2026-05-04 23:38 | 33.96995 | -12.02618 | 33167 ft | 438 kts | 217° |
| 2026-05-04 23:39 | 33.91934 | -12.06723 | 33166 ft | 439 kts | 217° |
| 2026-05-04 23:39 | 33.86870 | -12.10826 | 33151 ft | 439 kts | 217° |
| 2026-05-04 23:40 | 33.81810 | -12.14917 | 33161 ft | 438 kts | 217° |
| 2026-05-04 23:40 | 33.76743 | -12.19007 | 33167 ft | 438 kts | 217° |
| 2026-05-04 23:41 | 33.71681 | -12.23096 | 33168 ft | 438 kts | 217° |
| 2026-05-04 23:41 | 33.66616 | -12.27177 | 33168 ft | 438 kts | 217° |
| 2026-05-04 23:42 | 33.61543 | -12.31251 | 33170 ft | 439 kts | 217° |
| 2026-05-04 23:42 | 33.56477 | -12.35318 | 33166 ft | 437 kts | 216° |
| 2026-05-04 23:43 | 33.51459 | -12.39341 | 33171 ft | 437 kts | 216° |
| 2026-05-04 23:43 | 33.46400 | -12.43394 | 33168 ft | 438 kts | 216° |
| 2026-05-04 23:44 | 33.41331 | -12.47447 | 33169 ft | 438 kts | 216° |
| 2026-05-04 23:44 | 33.36268 | -12.51490 | 33168 ft | 438 kts | 216° |
| 2026-05-04 23:45 | 33.31197 | -12.55534 | 33159 ft | 438 kts | 216° |
| 2026-05-04 23:45 | 33.26149 | -12.59553 | 33171 ft | 435 kts | 216° |
| 2026-05-04 23:46 | 33.21106 | -12.63560 | 33164 ft | 435 kts | 216° |
| 2026-05-04 23:46 | 33.16067 | -12.67562 | 33161 ft | 435 kts | 216° |
| 2026-05-04 23:47 | 33.11022 | -12.71561 | 33158 ft | 435 kts | 216° |
| 2026-05-04 23:47 | 33.05976 | -12.75556 | 33161 ft | 435 kts | 216° |
| 2026-05-04 23:48 | 33.00926 | -12.79548 | 33155 ft | 435 kts | 216° |
| 2026-05-04 23:48 | 32.95902 | -12.83509 | 33158 ft | 433 kts | 216° |
| 2026-05-04 23:49 | 32.90878 | -12.87469 | 33159 ft | 433 kts | 216° |
| 2026-05-04 23:49 | 32.85861 | -12.91422 | 33159 ft | 433 kts | 216° |
| 2026-05-04 23:50 | 32.80840 | -12.95370 | 33155 ft | 433 kts | 216° |
| 2026-05-04 23:50 | 32.75814 | -12.99316 | 33150 ft | 433 kts | 216° |
| 2026-05-04 23:51 | 32.70827 | -13.03225 | 33152 ft | 433 kts | 216° |
| 2026-05-04 23:51 | 32.65750 | -13.07198 | 33155 ft | 433 kts | 216° |
| 2026-05-04 23:52 | 32.60721 | -13.11133 | 33156 ft | 433 kts | 216° |
| 2026-05-04 23:52 | 32.55682 | -13.15064 | 33153 ft | 434 kts | 215° |
| 2026-05-04 23:53 | 32.50649 | -13.18989 | 33154 ft | 434 kts | 215° |
| 2026-05-04 23:53 | 32.45589 | -13.22930 | 33139 ft | 435 kts | 215° |
| 2026-05-04 23:54 | 32.40561 | -13.26840 | 33158 ft | 431 kts | 215° |
| 2026-05-04 23:54 | 32.35529 | -13.30745 | 33148 ft | 431 kts | 215° |
| 2026-05-04 23:55 | 32.30516 | -13.34633 | 33157 ft | 431 kts | 215° |
| 2026-05-04 23:56 | 32.23006 | -13.40449 | 33147 ft | 431 kts | 215° |
| 2026-05-04 23:56 | 32.17988 | -13.44329 | 33164 ft | 431 kts | 215° |
| 2026-05-04 23:57 | 32.13030 | -13.48156 | 33146 ft | 421 kts | 216° |
| 2026-05-04 23:57 | 32.08110 | -13.51949 | 33155 ft | 425 kts | 216° |
| 2026-05-04 23:58 | 32.03120 | -13.55787 | 33156 ft | 425 kts | 216° |
| 2026-05-04 23:58 | 31.98175 | -13.59591 | 33156 ft | 424 kts | 216° |
| 2026-05-04 23:59 | 31.93244 | -13.63375 | 33152 ft | 424 kts | 216° |
| 2026-05-04 23:59 | 31.88291 | -13.67173 | 33145 ft | 424 kts | 216° |
| 2026-05-05 00:00 | 31.83435 | -13.70890 | 33148 ft | 413 kts | 217° |
| 2026-05-05 00:00 | 31.78619 | -13.74577 | 33156 ft | 414 kts | 217° |
| 2026-05-05 00:01 | 31.73756 | -13.78294 | 33157 ft | 414 kts | 217° |
| 2026-05-05 00:01 | 31.68953 | -13.81956 | 33156 ft | 414 kts | 216° |
| 2026-05-05 00:02 | 31.64120 | -13.85641 | 33153 ft | 414 kts | 216° |
| 2026-05-05 00:02 | 31.59267 | -13.89335 | 33153 ft | 417 kts | 216° |
| 2026-05-05 00:03 | 31.54451 | -13.92989 | 33145 ft | 404 kts | 217° |
| 2026-05-05 00:03 | 31.49721 | -13.96586 | 33143 ft | 406 kts | 217° |
| 2026-05-05 00:04 | 31.44972 | -14.00185 | 33148 ft | 406 kts | 217° |
| 2026-05-05 00:04 | 31.40239 | -14.03768 | 33148 ft | 406 kts | 217° |
| 2026-05-05 00:05 | 31.35495 | -14.07356 | 33137 ft | 406 kts | 217° |
| 2026-05-05 00:05 | 31.30752 | -14.10939 | 33138 ft | 406 kts | 217° |
| 2026-05-05 00:06 | 31.26021 | -14.14508 | 33133 ft | 402 kts | 217° |
| 2026-05-05 00:06 | 31.21321 | -14.18047 | 33140 ft | 401 kts | 217° |
| 2026-05-05 00:07 | 31.16627 | -14.21585 | 33136 ft | 402 kts | 217° |
| 2026-05-05 00:07 | 31.12713 | -14.24525 | 33134 ft | 403 kts | 217° |
| 2026-05-05 00:08 | 31.07998 | -14.28069 | 33134 ft | 403 kts | 217° |
| 2026-05-05 00:08 | 31.03278 | -14.31605 | 33134 ft | 403 kts | 217° |
| 2026-05-05 00:09 | 30.98558 | -14.35137 | 33115 ft | 403 kts | 217° |
| 2026-05-05 00:09 | 30.93844 | -14.38666 | 33128 ft | 403 kts | 217° |
| 2026-05-05 00:10 | 30.88967 | -14.41911 | 33126 ft | 410 kts | 207° |
| 2026-05-05 00:10 | 30.83507 | -14.44009 | 33131 ft | 414 kts | 204° |
| 2026-05-05 00:11 | 30.78020 | -14.45996 | 33129 ft | 413 kts | 204° |
| 2026-05-05 00:11 | 30.72529 | -14.48011 | 33130 ft | 413 kts | 204° |
| 2026-05-05 00:12 | 30.67047 | -14.50028 | 33116 ft | 413 kts | 204° |
| 2026-05-05 00:12 | 30.61575 | -14.52039 | 33122 ft | 413 kts | 204° |
| 2026-05-05 00:13 | 30.56099 | -14.54052 | 33123 ft | 413 kts | 204° |
| 2026-05-05 00:13 | 30.50619 | -14.56063 | 33123 ft | 413 kts | 204° |
| 2026-05-05 00:14 | 30.45137 | -14.58072 | 33128 ft | 414 kts | 204° |
| 2026-05-05 00:14 | 30.39642 | -14.60084 | 33110 ft | 415 kts | 204° |
| 2026-05-05 00:15 | 30.34122 | -14.62102 | 33124 ft | 417 kts | 204° |
| 2026-05-05 00:15 | 30.28578 | -14.64128 | 33122 ft | 419 kts | 204° |
| 2026-05-05 00:16 | 30.23016 | -14.66155 | 33121 ft | 417 kts | 204° |
| 2026-05-05 00:16 | 30.17519 | -14.68155 | 33118 ft | 411 kts | 204° |
| 2026-05-05 00:17 | 30.12065 | -14.70141 | 33107 ft | 411 kts | 205° |
| 2026-05-05 00:17 | 30.06640 | -14.72112 | 33119 ft | 407 kts | 205° |
| 2026-05-05 00:18 | 30.01244 | -14.74072 | 33114 ft | 406 kts | 205° |
| 2026-05-05 00:18 | 29.95869 | -14.76020 | 33121 ft | 406 kts | 205° |
| 2026-05-05 00:19 | 29.90462 | -14.77981 | 33119 ft | 406 kts | 205° |